sensor_id;sensor_type;location;lat;lon;timestamp;P1;durP1;ratioP1;P2;durP2;ratioP2
44048;SDS011;29717;47.028;15.470;2022-11-20T00:01:04;39.00;;;25.20;;
44048;SDS011;29717;47.028;15.470;2022-11-20T00:03:31;35.70;;;25.73;;
44048;SDS011;29717;47.028;15.470;2022-11-20T00:06:00;39.00;;;25.40;;
44048;SDS011;29717;47.028;15.470;2022-11-20T00:08:27;36.63;;;25.27;;
44048;SDS011;29717;47.028;15.470;2022-11-20T00:10:54;37.73;;;24.77;;
44048;SDS011;29717;47.028;15.470;2022-11-20T00:13:21;34.93;;;23.73;;
44048;SDS011;29717;47.028;15.470;2022-11-20T00:15:48;35.60;;;24.40;;
44048;SDS011;29717;47.028;15.470;2022-11-20T00:18:14;36.70;;;25.20;;
44048;SDS011;29717;47.028;15.470;2022-11-20T00:20:41;34.97;;;24.17;;
44048;SDS011;29717;47.028;15.470;2022-11-20T00:23:09;37.70;;;24.57;;
44048;SDS011;29717;47.028;15.470;2022-11-20T00:25:36;36.57;;;25.03;;
44048;SDS011;29717;47.028;15.470;2022-11-20T00:28:03;36.30;;;25.20;;
44048;SDS011;29717;47.028;15.470;2022-11-20T00:30:30;35.73;;;24.00;;
44048;SDS011;29717;47.028;15.470;2022-11-20T00:32:57;36.43;;;25.03;;
44048;SDS011;29717;47.028;15.470;2022-11-20T00:35:24;35.13;;;25.17;;
44048;SDS011;29717;47.028;15.470;2022-11-20T00:37:50;34.20;;;25.37;;
44048;SDS011;29717;47.028;15.470;2022-11-20T00:40:19;36.13;;;25.17;;
44048;SDS011;29717;47.028;15.470;2022-11-20T00:42:45;36.03;;;26.10;;
44048;SDS011;29717;47.028;15.470;2022-11-20T00:45:12;32.43;;;23.17;;
44048;SDS011;29717;47.028;15.470;2022-11-20T00:47:39;32.43;;;23.07;;
44048;SDS011;29717;47.028;15.470;2022-11-20T00:50:06;33.23;;;24.43;;
44048;SDS011;29717;47.028;15.470;2022-11-20T00:52:33;31.17;;;22.50;;
44048;SDS011;29717;47.028;15.470;2022-11-20T00:55:00;30.40;;;21.80;;
44048;SDS011;29717;47.028;15.470;2022-11-20T00:57:29;32.47;;;22.43;;
44048;SDS011;29717;47.028;15.470;2022-11-20T00:59:55;33.73;;;23.53;;
44048;SDS011;29717;47.028;15.470;2022-11-20T01:02:22;34.03;;;23.67;;
44048;SDS011;29717;47.028;15.470;2022-11-20T01:04:49;30.80;;;22.20;;
44048;SDS011;29717;47.028;15.470;2022-11-20T01:07:16;33.27;;;22.93;;
44048;SDS011;29717;47.028;15.470;2022-11-20T01:09:42;28.47;;;20.87;;
44048;SDS011;29717;47.028;15.470;2022-11-20T01:12:09;29.03;;;21.10;;
44048;SDS011;29717;47.028;15.470;2022-11-20T01:14:38;30.30;;;20.67;;
44048;SDS011;29717;47.028;15.470;2022-11-20T01:17:04;29.47;;;21.53;;
44048;SDS011;29717;47.028;15.470;2022-11-20T01:19:31;30.27;;;21.30;;
44048;SDS011;29717;47.028;15.470;2022-11-20T01:21:58;28.87;;;21.07;;
44048;SDS011;29717;47.028;15.470;2022-11-20T01:24:24;28.70;;;20.20;;
44048;SDS011;29717;47.028;15.470;2022-11-20T01:26:51;25.83;;;19.17;;
44048;SDS011;29717;47.028;15.470;2022-11-20T01:29:20;27.90;;;20.20;;
44048;SDS011;29717;47.028;15.470;2022-11-20T01:31:48;28.30;;;20.50;;
44048;SDS011;29717;47.028;15.470;2022-11-20T01:34:16;27.80;;;21.03;;
44048;SDS011;29717;47.028;15.470;2022-11-20T01:36:43;30.63;;;20.90;;
44048;SDS011;29717;47.028;15.470;2022-11-20T01:41:40;29.43;;;20.63;;
44048;SDS011;29717;47.028;15.470;2022-11-20T01:47:07;30.37;;;21.17;;
44048;SDS011;29717;47.028;15.470;2022-11-20T01:49:37;26.80;;;20.13;;
44048;SDS011;29717;47.028;15.470;2022-11-20T01:52:06;26.63;;;20.03;;
44048;SDS011;29717;47.028;15.470;2022-11-20T01:54:35;29.40;;;21.57;;
44048;SDS011;29717;47.028;15.470;2022-11-20T01:57:02;30.87;;;21.73;;
44048;SDS011;29717;47.028;15.470;2022-11-20T01:59:30;33.27;;;22.70;;
44048;SDS011;29717;47.028;15.470;2022-11-20T02:01:57;31.27;;;23.20;;
44048;SDS011;29717;47.028;15.470;2022-11-20T02:04:26;30.33;;;21.90;;
44048;SDS011;29717;47.028;15.470;2022-11-20T02:06:54;32.43;;;22.33;;
44048;SDS011;29717;47.028;15.470;2022-11-20T02:09:21;32.50;;;21.63;;
44048;SDS011;29717;47.028;15.470;2022-11-20T02:11:48;29.00;;;21.57;;
44048;SDS011;29717;47.028;15.470;2022-11-20T02:14:15;30.63;;;22.03;;
44048;SDS011;29717;47.028;15.470;2022-11-20T02:16:43;29.67;;;21.47;;
44048;SDS011;29717;47.028;15.470;2022-11-20T02:19:14;31.17;;;22.80;;
44048;SDS011;29717;47.028;15.470;2022-11-20T02:21:45;29.10;;;21.43;;
44048;SDS011;29717;47.028;15.470;2022-11-20T02:24:16;31.83;;;22.50;;
44048;SDS011;29717;47.028;15.470;2022-11-20T02:26:46;30.07;;;22.43;;
44048;SDS011;29717;47.028;15.470;2022-11-20T02:29:15;30.83;;;21.90;;
44048;SDS011;29717;47.028;15.470;2022-11-20T02:31:44;31.03;;;22.27;;
44048;SDS011;29717;47.028;15.470;2022-11-20T02:34:11;31.57;;;22.40;;
44048;SDS011;29717;47.028;15.470;2022-11-20T02:36:38;29.83;;;21.60;;
44048;SDS011;29717;47.028;15.470;2022-11-20T02:39:06;30.00;;;22.97;;
44048;SDS011;29717;47.028;15.470;2022-11-20T02:41:36;30.53;;;22.20;;
44048;SDS011;29717;47.028;15.470;2022-11-20T02:44:04;31.30;;;22.60;;
44048;SDS011;29717;47.028;15.470;2022-11-20T02:46:31;32.67;;;22.63;;
44048;SDS011;29717;47.028;15.470;2022-11-20T02:48:58;31.57;;;22.17;;
44048;SDS011;29717;47.028;15.470;2022-11-20T02:51:25;27.23;;;20.17;;
44048;SDS011;29717;47.028;15.470;2022-11-20T02:53:52;29.63;;;21.80;;
44048;SDS011;29717;47.028;15.470;2022-11-20T02:56:19;31.87;;;22.93;;
44048;SDS011;29717;47.028;15.470;2022-11-20T02:58:47;31.90;;;21.43;;
44048;SDS011;29717;47.028;15.470;2022-11-20T03:01:14;31.40;;;22.37;;
44048;SDS011;29717;47.028;15.470;2022-11-20T03:03:41;33.77;;;23.60;;
44048;SDS011;29717;47.028;15.470;2022-11-20T03:06:07;32.23;;;21.70;;
44048;SDS011;29717;47.028;15.470;2022-11-20T03:08:34;30.90;;;21.67;;
44048;SDS011;29717;47.028;15.470;2022-11-20T03:11:05;33.27;;;23.00;;
44048;SDS011;29717;47.028;15.470;2022-11-20T03:13:32;30.73;;;22.27;;
44048;SDS011;29717;47.028;15.470;2022-11-20T03:16:05;31.33;;;21.70;;
44048;SDS011;29717;47.028;15.470;2022-11-20T03:18:32;30.20;;;22.00;;
44048;SDS011;29717;47.028;15.470;2022-11-20T03:21:01;28.70;;;21.40;;
44048;SDS011;29717;47.028;15.470;2022-11-20T03:23:28;27.70;;;21.33;;
44048;SDS011;29717;47.028;15.470;2022-11-20T03:25:55;28.43;;;20.37;;
44048;SDS011;29717;47.028;15.470;2022-11-20T03:28:22;28.03;;;19.37;;
44048;SDS011;29717;47.028;15.470;2022-11-20T03:30:49;29.43;;;21.43;;
44048;SDS011;29717;47.028;15.470;2022-11-20T03:33:17;29.93;;;21.63;;
44048;SDS011;29717;47.028;15.470;2022-11-20T03:35:44;30.03;;;22.07;;
44048;SDS011;29717;47.028;15.470;2022-11-20T03:38:13;32.73;;;22.97;;
44048;SDS011;29717;47.028;15.470;2022-11-20T03:40:40;32.20;;;21.77;;
44048;SDS011;29717;47.028;15.470;2022-11-20T03:43:06;29.77;;;22.57;;
44048;SDS011;29717;47.028;15.470;2022-11-20T03:45:33;33.07;;;21.87;;
44048;SDS011;29717;47.028;15.470;2022-11-20T03:48:00;33.60;;;22.67;;
44048;SDS011;29717;47.028;15.470;2022-11-20T03:50:29;32.03;;;23.17;;
44048;SDS011;29717;47.028;15.470;2022-11-20T03:52:55;29.93;;;21.77;;
44048;SDS011;29717;47.028;15.470;2022-11-20T03:55:22;32.77;;;22.43;;
44048;SDS011;29717;47.028;15.470;2022-11-20T03:57:49;33.67;;;20.67;;
44048;SDS011;29717;47.028;15.470;2022-11-20T04:00:16;30.07;;;21.80;;
44048;SDS011;29717;47.028;15.470;2022-11-20T04:02:43;31.77;;;21.83;;
44048;SDS011;29717;47.028;15.470;2022-11-20T04:05:10;27.27;;;19.87;;
44048;SDS011;29717;47.028;15.470;2022-11-20T04:07:38;26.03;;;19.60;;
44048;SDS011;29717;47.028;15.470;2022-11-20T04:10:05;29.87;;;20.90;;
44048;SDS011;29717;47.028;15.470;2022-11-20T04:12:32;29.27;;;21.70;;
44048;SDS011;29717;47.028;15.470;2022-11-20T04:15:00;28.03;;;21.00;;
44048;SDS011;29717;47.028;15.470;2022-11-20T04:17:27;28.93;;;21.17;;
44048;SDS011;29717;47.028;15.470;2022-11-20T04:19:54;28.50;;;20.43;;
44048;SDS011;29717;47.028;15.470;2022-11-20T04:22:21;29.77;;;21.60;;
44048;SDS011;29717;47.028;15.470;2022-11-20T04:24:49;31.97;;;22.03;;
44048;SDS011;29717;47.028;15.470;2022-11-20T04:27:16;29.93;;;22.30;;
44048;SDS011;29717;47.028;15.470;2022-11-20T04:29:43;31.83;;;21.73;;
44048;SDS011;29717;47.028;15.470;2022-11-20T04:32:09;33.23;;;22.50;;
44048;SDS011;29717;47.028;15.470;2022-11-20T04:34:36;31.83;;;22.00;;
44048;SDS011;29717;47.028;15.470;2022-11-20T04:37:03;37.23;;;22.97;;
44048;SDS011;29717;47.028;15.470;2022-11-20T04:39:30;34.73;;;22.77;;
44048;SDS011;29717;47.028;15.470;2022-11-20T04:41:59;33.87;;;22.47;;
44048;SDS011;29717;47.028;15.470;2022-11-20T04:44:45;32.37;;;23.93;;
44048;SDS011;29717;47.028;15.470;2022-11-20T04:47:12;34.73;;;23.53;;
44048;SDS011;29717;47.028;15.470;2022-11-20T04:49:39;36.50;;;23.03;;
44048;SDS011;29717;47.028;15.470;2022-11-20T04:52:05;35.30;;;23.93;;
44048;SDS011;29717;47.028;15.470;2022-11-20T04:54:32;35.57;;;24.23;;
44048;SDS011;29717;47.028;15.470;2022-11-20T04:57:00;40.27;;;27.97;;
44048;SDS011;29717;47.028;15.470;2022-11-20T04:59:27;35.33;;;25.13;;
44048;SDS011;29717;47.028;15.470;2022-11-20T05:01:54;35.10;;;23.13;;
44048;SDS011;29717;47.028;15.470;2022-11-20T05:04:21;37.60;;;24.70;;
44048;SDS011;29717;47.028;15.470;2022-11-20T05:06:49;36.40;;;23.43;;
44048;SDS011;29717;47.028;15.470;2022-11-20T05:09:15;31.60;;;22.93;;
44048;SDS011;29717;47.028;15.470;2022-11-20T05:11:42;35.00;;;24.00;;
44048;SDS011;29717;47.028;15.470;2022-11-20T05:14:10;33.70;;;22.97;;
44048;SDS011;29717;47.028;15.470;2022-11-20T05:16:37;33.67;;;23.17;;
44048;SDS011;29717;47.028;15.470;2022-11-20T05:19:04;35.73;;;23.87;;
44048;SDS011;29717;47.028;15.470;2022-11-20T05:21:31;33.73;;;22.77;;
44048;SDS011;29717;47.028;15.470;2022-11-20T05:23:58;30.20;;;21.10;;
44048;SDS011;29717;47.028;15.470;2022-11-20T05:26:24;34.10;;;23.53;;
44048;SDS011;29717;47.028;15.470;2022-11-20T05:28:51;30.10;;;21.07;;
44048;SDS011;29717;47.028;15.470;2022-11-20T05:31:20;30.63;;;20.63;;
44048;SDS011;29717;47.028;15.470;2022-11-20T05:33:47;28.47;;;19.97;;
44048;SDS011;29717;47.028;15.470;2022-11-20T05:36:14;28.70;;;21.13;;
44048;SDS011;29717;47.028;15.470;2022-11-20T05:38:41;33.13;;;20.77;;
44048;SDS011;29717;47.028;15.470;2022-11-20T05:41:08;33.27;;;21.97;;
44048;SDS011;29717;47.028;15.470;2022-11-20T05:43:36;30.10;;;21.33;;
44048;SDS011;29717;47.028;15.470;2022-11-20T05:46:03;29.13;;;20.30;;
44048;SDS011;29717;47.028;15.470;2022-11-20T05:48:35;28.83;;;19.57;;
44048;SDS011;29717;47.028;15.470;2022-11-20T05:51:03;24.87;;;17.97;;
44048;SDS011;29717;47.028;15.470;2022-11-20T05:53:31;25.83;;;18.60;;
44048;SDS011;29717;47.028;15.470;2022-11-20T05:55:59;23.67;;;17.20;;
44048;SDS011;29717;47.028;15.470;2022-11-20T05:58:26;25.47;;;17.33;;
44048;SDS011;29717;47.028;15.470;2022-11-20T06:00:52;29.70;;;18.83;;
44048;SDS011;29717;47.028;15.470;2022-11-20T06:03:20;27.93;;;18.40;;
44048;SDS011;29717;47.028;15.470;2022-11-20T06:05:50;26.07;;;17.93;;
44048;SDS011;29717;47.028;15.470;2022-11-20T06:08:22;25.40;;;17.10;;
44048;SDS011;29717;47.028;15.470;2022-11-20T06:10:49;23.50;;;17.93;;
44048;SDS011;29717;47.028;15.470;2022-11-20T06:13:16;29.20;;;18.80;;
44048;SDS011;29717;47.028;15.470;2022-11-20T06:15:47;28.03;;;18.60;;
44048;SDS011;29717;47.028;15.470;2022-11-20T06:18:14;27.27;;;17.77;;
44048;SDS011;29717;47.028;15.470;2022-11-20T06:20:41;26.87;;;18.47;;
44048;SDS011;29717;47.028;15.470;2022-11-20T06:23:09;24.53;;;17.50;;
44048;SDS011;29717;47.028;15.470;2022-11-20T06:25:37;24.53;;;17.67;;
44048;SDS011;29717;47.028;15.470;2022-11-20T06:28:04;26.07;;;17.23;;
44048;SDS011;29717;47.028;15.470;2022-11-20T06:30:30;22.70;;;15.97;;
44048;SDS011;29717;47.028;15.470;2022-11-20T06:32:57;24.17;;;17.10;;
44048;SDS011;29717;47.028;15.470;2022-11-20T06:35:24;24.20;;;16.70;;
44048;SDS011;29717;47.028;15.470;2022-11-20T06:37:51;27.20;;;17.53;;
44048;SDS011;29717;47.028;15.470;2022-11-20T06:40:19;23.87;;;16.80;;
44048;SDS011;29717;47.028;15.470;2022-11-20T06:42:46;23.90;;;16.90;;
44048;SDS011;29717;47.028;15.470;2022-11-20T06:45:13;24.33;;;17.23;;
44048;SDS011;29717;47.028;15.470;2022-11-20T06:47:40;25.77;;;17.67;;
44048;SDS011;29717;47.028;15.470;2022-11-20T06:52:45;24.80;;;17.07;;
44048;SDS011;29717;47.028;15.470;2022-11-20T06:55:12;26.33;;;17.50;;
44048;SDS011;29717;47.028;15.470;2022-11-20T06:57:42;23.77;;;17.20;;
44048;SDS011;29717;47.028;15.470;2022-11-20T07:00:10;26.97;;;18.10;;
44048;SDS011;29717;47.028;15.470;2022-11-20T07:02:37;25.23;;;17.53;;
44048;SDS011;29717;47.028;15.470;2022-11-20T07:05:04;23.87;;;17.10;;
44048;SDS011;29717;47.028;15.470;2022-11-20T07:07:33;25.53;;;17.33;;
44048;SDS011;29717;47.028;15.470;2022-11-20T07:10:01;24.83;;;19.03;;
44048;SDS011;29717;47.028;15.470;2022-11-20T07:12:27;23.50;;;17.10;;
44048;SDS011;29717;47.028;15.470;2022-11-20T07:14:56;24.97;;;16.97;;
44048;SDS011;29717;47.028;15.470;2022-11-20T07:17:23;21.83;;;16.03;;
44048;SDS011;29717;47.028;15.470;2022-11-20T07:19:50;23.50;;;16.90;;
44048;SDS011;29717;47.028;15.470;2022-11-20T07:22:17;22.20;;;16.07;;
44048;SDS011;29717;47.028;15.470;2022-11-20T07:24:46;21.97;;;15.57;;
44048;SDS011;29717;47.028;15.470;2022-11-20T07:27:13;21.13;;;15.93;;
44048;SDS011;29717;47.028;15.470;2022-11-20T07:29:40;18.37;;;14.37;;
44048;SDS011;29717;47.028;15.470;2022-11-20T07:32:08;22.80;;;15.87;;
44048;SDS011;29717;47.028;15.470;2022-11-20T07:34:35;19.07;;;14.20;;
44048;SDS011;29717;47.028;15.470;2022-11-20T07:37:02;21.60;;;15.47;;
44048;SDS011;29717;47.028;15.470;2022-11-20T07:39:28;20.17;;;14.77;;
44048;SDS011;29717;47.028;15.470;2022-11-20T07:41:55;18.57;;;14.43;;
44048;SDS011;29717;47.028;15.470;2022-11-20T07:44:22;19.83;;;14.87;;
44048;SDS011;29717;47.028;15.470;2022-11-20T07:46:49;18.87;;;11.07;;
44048;SDS011;29717;47.028;15.470;2022-11-20T07:49:17;19.37;;;13.33;;
44048;SDS011;29717;47.028;15.470;2022-11-20T07:51:44;20.00;;;15.97;;
44048;SDS011;29717;47.028;15.470;2022-11-20T07:54:11;20.80;;;15.40;;
44048;SDS011;29717;47.028;15.470;2022-11-20T07:56:38;17.93;;;14.17;;
44048;SDS011;29717;47.028;15.470;2022-11-20T07:59:04;18.30;;;14.10;;
44048;SDS011;29717;47.028;15.470;2022-11-20T08:01:31;17.93;;;14.30;;
44048;SDS011;29717;47.028;15.470;2022-11-20T08:03:58;18.73;;;15.40;;
44048;SDS011;29717;47.028;15.470;2022-11-20T08:06:26;18.87;;;14.57;;
44048;SDS011;29717;47.028;15.470;2022-11-20T08:08:53;21.67;;;16.40;;
44048;SDS011;29717;47.028;15.470;2022-11-20T08:11:20;24.10;;;15.10;;
44048;SDS011;29717;47.028;15.470;2022-11-20T08:14:04;20.67;;;15.97;;
44048;SDS011;29717;47.028;15.470;2022-11-20T08:16:39;20.33;;;14.97;;
44048;SDS011;29717;47.028;15.470;2022-11-20T08:19:07;17.50;;;14.63;;
44048;SDS011;29717;47.028;15.470;2022-11-20T08:21:35;17.40;;;13.90;;
44048;SDS011;29717;47.028;15.470;2022-11-20T08:24:02;19.73;;;13.73;;
44048;SDS011;29717;47.028;15.470;2022-11-20T08:26:29;18.00;;;13.23;;
44048;SDS011;29717;47.028;15.470;2022-11-20T08:28:56;18.87;;;14.17;;
44048;SDS011;29717;47.028;15.470;2022-11-20T08:31:24;16.17;;;13.40;;
44048;SDS011;29717;47.028;15.470;2022-11-20T08:33:51;20.13;;;14.03;;
44048;SDS011;29717;47.028;15.470;2022-11-20T08:36:18;16.57;;;13.83;;
44048;SDS011;29717;47.028;15.470;2022-11-20T08:38:48;17.77;;;13.50;;
44048;SDS011;29717;47.028;15.470;2022-11-20T08:41:15;18.27;;;13.17;;
44048;SDS011;29717;47.028;15.470;2022-11-20T08:43:53;18.30;;;12.93;;
44048;SDS011;29717;47.028;15.470;2022-11-20T08:46:20;16.57;;;12.40;;
44048;SDS011;29717;47.028;15.470;2022-11-20T08:48:47;17.37;;;13.53;;
44048;SDS011;29717;47.028;15.470;2022-11-20T08:51:14;18.37;;;13.63;;
44048;SDS011;29717;47.028;15.470;2022-11-20T08:53:41;17.63;;;14.13;;
44048;SDS011;29717;47.028;15.470;2022-11-20T08:56:10;18.60;;;14.40;;
44048;SDS011;29717;47.028;15.470;2022-11-20T08:58:36;19.00;;;14.40;;
44048;SDS011;29717;47.028;15.470;2022-11-20T09:01:03;17.90;;;13.43;;
44048;SDS011;29717;47.028;15.470;2022-11-20T09:03:30;18.00;;;13.90;;
44048;SDS011;29717;47.028;15.470;2022-11-20T09:05:58;18.77;;;14.37;;
44048;SDS011;29717;47.028;15.470;2022-11-20T09:08:28;17.97;;;13.83;;
44048;SDS011;29717;47.028;15.470;2022-11-20T09:10:56;18.73;;;13.77;;
44048;SDS011;29717;47.028;15.470;2022-11-20T09:13:25;18.87;;;14.40;;
44048;SDS011;29717;47.028;15.470;2022-11-20T09:15:53;18.30;;;14.63;;
44048;SDS011;29717;47.028;15.470;2022-11-20T09:18:20;19.80;;;15.10;;
44048;SDS011;29717;47.028;15.470;2022-11-20T09:20:48;20.03;;;14.87;;
44048;SDS011;29717;47.028;15.470;2022-11-20T09:23:15;22.73;;;16.07;;
44048;SDS011;29717;47.028;15.470;2022-11-20T09:25:42;20.67;;;15.23;;
44048;SDS011;29717;47.028;15.470;2022-11-20T09:28:08;24.60;;;16.50;;
44048;SDS011;29717;47.028;15.470;2022-11-20T09:30:37;21.17;;;15.77;;
44048;SDS011;29717;47.028;15.470;2022-11-20T09:33:04;21.60;;;15.47;;
44048;SDS011;29717;47.028;15.470;2022-11-20T09:35:31;21.80;;;16.00;;
44048;SDS011;29717;47.028;15.470;2022-11-20T09:37:58;21.33;;;15.93;;
44048;SDS011;29717;47.028;15.470;2022-11-20T09:40:30;22.33;;;16.70;;
44048;SDS011;29717;47.028;15.470;2022-11-20T09:42:58;21.03;;;16.73;;
44048;SDS011;29717;47.028;15.470;2022-11-20T09:45:40;26.93;;;19.17;;
44048;SDS011;29717;47.028;15.470;2022-11-20T09:48:21;20.50;;;15.87;;
44048;SDS011;29717;47.028;15.470;2022-11-20T09:50:53;20.80;;;15.80;;
44048;SDS011;29717;47.028;15.470;2022-11-20T09:53:25;19.50;;;15.50;;
44048;SDS011;29717;47.028;15.470;2022-11-20T09:55:57;19.70;;;15.47;;
44048;SDS011;29717;47.028;15.470;2022-11-20T09:58:26;23.10;;;16.10;;
44048;SDS011;29717;47.028;15.470;2022-11-20T10:01:00;27.10;;;17.63;;
44048;SDS011;29717;47.028;15.470;2022-11-20T10:03:34;25.93;;;18.80;;
44048;SDS011;29717;47.028;15.470;2022-11-20T10:06:03;24.40;;;17.90;;
44048;SDS011;29717;47.028;15.470;2022-11-20T10:08:34;24.77;;;18.03;;
44048;SDS011;29717;47.028;15.470;2022-11-20T10:11:07;18.37;;;14.93;;
44048;SDS011;29717;47.028;15.470;2022-11-20T10:13:38;16.83;;;14.83;;
44048;SDS011;29717;47.028;15.470;2022-11-20T10:16:11;17.87;;;14.30;;
44048;SDS011;29717;47.028;15.470;2022-11-20T10:18:49;18.63;;;14.00;;
44048;SDS011;29717;47.028;15.470;2022-11-20T10:21:20;20.48;;;15.52;;
44048;SDS011;29717;47.028;15.470;2022-11-20T10:23:56;17.05;;;14.40;;
44048;SDS011;29717;47.028;15.470;2022-11-20T10:26:28;17.50;;;13.77;;
44048;SDS011;29717;47.028;15.470;2022-11-20T10:29:02;17.48;;;13.60;;
44048;SDS011;29717;47.028;15.470;2022-11-20T10:31:33;18.48;;;14.70;;
44048;SDS011;29717;47.028;15.470;2022-11-20T10:34:01;16.65;;;13.52;;
44048;SDS011;29717;47.028;15.470;2022-11-20T10:36:30;16.48;;;14.02;;
44048;SDS011;29717;47.028;15.470;2022-11-20T10:39:01;17.75;;;13.80;;
44048;SDS011;29717;47.028;15.470;2022-11-20T10:41:32;17.52;;;14.05;;
44048;SDS011;29717;47.028;15.470;2022-11-20T10:44:01;17.77;;;14.80;;
44048;SDS011;29717;47.028;15.470;2022-11-20T10:46:34;18.77;;;14.75;;
44048;SDS011;29717;47.028;15.470;2022-11-20T10:49:03;15.18;;;13.55;;
44048;SDS011;29717;47.028;15.470;2022-11-20T10:51:34;16.35;;;14.18;;
44048;SDS011;29717;47.028;15.470;2022-11-20T10:54:06;16.58;;;13.80;;
44048;SDS011;29717;47.028;15.470;2022-11-20T10:56:38;17.13;;;13.98;;
44048;SDS011;29717;47.028;15.470;2022-11-20T10:59:14;15.63;;;13.95;;
44048;SDS011;29717;47.028;15.470;2022-11-20T11:01:47;17.40;;;14.25;;
44048;SDS011;29717;47.028;15.470;2022-11-20T11:04:18;15.82;;;13.98;;
44048;SDS011;29717;47.028;15.470;2022-11-20T11:06:50;17.85;;;14.27;;
44048;SDS011;29717;47.028;15.470;2022-11-20T11:09:33;18.45;;;14.77;;
44048;SDS011;29717;47.028;15.470;2022-11-20T11:12:01;17.90;;;14.57;;
44048;SDS011;29717;47.028;15.470;2022-11-20T11:14:27;17.95;;;15.20;;
44048;SDS011;29717;47.028;15.470;2022-11-20T11:16:56;16.75;;;13.98;;
44048;SDS011;29717;47.028;15.470;2022-11-20T11:19:23;17.33;;;14.27;;
44048;SDS011;29717;47.028;15.470;2022-11-20T11:21:51;16.70;;;13.93;;
44048;SDS011;29717;47.028;15.470;2022-11-20T11:24:20;19.92;;;15.27;;
44048;SDS011;29717;47.028;15.470;2022-11-20T11:26:51;18.95;;;14.10;;
44048;SDS011;29717;47.028;15.470;2022-11-20T11:29:19;17.05;;;13.85;;
44048;SDS011;29717;47.028;15.470;2022-11-20T11:31:46;18.13;;;14.57;;
44048;SDS011;29717;47.028;15.470;2022-11-20T11:34:16;16.45;;;14.65;;
44048;SDS011;29717;47.028;15.470;2022-11-20T11:36:48;18.70;;;13.80;;
44048;SDS011;29717;47.028;15.470;2022-11-20T11:39:17;16.08;;;13.10;;
44048;SDS011;29717;47.028;15.470;2022-11-20T11:41:46;13.77;;;11.90;;
44048;SDS011;29717;47.028;15.470;2022-11-20T11:44:15;13.57;;;11.73;;
44048;SDS011;29717;47.028;15.470;2022-11-20T11:47:00;13.40;;;11.48;;
44048;SDS011;29717;47.028;15.470;2022-11-20T11:49:30;12.82;;;10.98;;
44048;SDS011;29717;47.028;15.470;2022-11-20T11:52:02;11.98;;;10.55;;
44048;SDS011;29717;47.028;15.470;2022-11-20T11:54:32;14.25;;;11.65;;
44048;SDS011;29717;47.028;15.470;2022-11-20T11:57:00;12.13;;;9.93;;
44048;SDS011;29717;47.028;15.470;2022-11-20T11:59:41;11.48;;;10.32;;
44048;SDS011;29717;47.028;15.470;2022-11-20T12:02:13;10.65;;;9.40;;
44048;SDS011;29717;47.028;15.470;2022-11-20T12:04:43;9.70;;;8.70;;
44048;SDS011;29717;47.028;15.470;2022-11-20T12:07:12;12.38;;;8.68;;
44048;SDS011;29717;47.028;15.470;2022-11-20T12:09:41;10.57;;;9.57;;
44048;SDS011;29717;47.028;15.470;2022-11-20T12:12:10;9.77;;;7.93;;
44048;SDS011;29717;47.028;15.470;2022-11-20T12:14:38;9.52;;;8.63;;
44048;SDS011;29717;47.028;15.470;2022-11-20T12:17:07;12.00;;;9.00;;
44048;SDS011;29717;47.028;15.470;2022-11-20T12:19:36;10.10;;;9.10;;
44048;SDS011;29717;47.028;15.470;2022-11-20T12:22:07;8.60;;;7.80;;
44048;SDS011;29717;47.028;15.470;2022-11-20T12:24:42;8.55;;;7.75;;
44048;SDS011;29717;47.028;15.470;2022-11-20T12:27:16;9.18;;;8.30;;
44048;SDS011;29717;47.028;15.470;2022-11-20T12:29:50;8.57;;;7.72;;
44048;SDS011;29717;47.028;15.470;2022-11-20T12:32:29;7.05;;;6.45;;
44048;SDS011;29717;47.028;15.470;2022-11-20T12:35:01;8.85;;;6.90;;
44048;SDS011;29717;47.028;15.470;2022-11-20T12:37:35;6.90;;;5.82;;
44048;SDS011;29717;47.028;15.470;2022-11-20T12:40:11;7.45;;;5.72;;
44048;SDS011;29717;47.028;15.470;2022-11-20T12:45:53;6.50;;;5.90;;
44048;SDS011;29717;47.028;15.470;2022-11-20T12:48:24;5.18;;;4.35;;
44048;SDS011;29717;47.028;15.470;2022-11-20T12:50:57;5.28;;;4.78;;
44048;SDS011;29717;47.028;15.470;2022-11-20T12:53:29;7.25;;;5.10;;
44048;SDS011;29717;47.028;15.470;2022-11-20T12:56:02;4.25;;;3.85;;
44048;SDS011;29717;47.028;15.470;2022-11-20T12:58:32;4.82;;;4.43;;
44048;SDS011;29717;47.028;15.470;2022-11-20T13:01:04;4.80;;;4.40;;
44048;SDS011;29717;47.028;15.470;2022-11-20T13:03:55;5.10;;;4.60;;
44048;SDS011;29717;47.028;15.470;2022-11-20T13:06:25;3.45;;;3.15;;
44048;SDS011;29717;47.028;15.470;2022-11-20T13:08:54;3.45;;;3.15;;
44048;SDS011;29717;47.028;15.470;2022-11-20T13:11:24;4.40;;;3.28;;
44048;SDS011;29717;47.028;15.470;2022-11-20T13:13:58;4.38;;;3.97;;
44048;SDS011;29717;47.028;15.470;2022-11-20T13:16:29;3.95;;;3.55;;
44048;SDS011;29717;47.028;15.470;2022-11-20T13:19:00;3.97;;;3.67;;
44048;SDS011;29717;47.028;15.470;2022-11-20T13:21:35;3.40;;;3.10;;
44048;SDS011;29717;47.028;15.470;2022-11-20T13:24:07;4.65;;;4.20;;
44048;SDS011;29717;47.028;15.470;2022-11-20T13:26:34;4.20;;;3.80;;
44048;SDS011;29717;47.028;15.470;2022-11-20T13:29:02;4.35;;;3.95;;
44048;SDS011;29717;47.028;15.470;2022-11-20T13:31:31;5.55;;;4.18;;
44048;SDS011;29717;47.028;15.470;2022-11-20T13:33:59;4.93;;;4.30;;
44048;SDS011;29717;47.028;15.470;2022-11-20T13:36:27;4.70;;;4.20;;
44048;SDS011;29717;47.028;15.470;2022-11-20T13:38:54;4.82;;;4.40;;
44048;SDS011;29717;47.028;15.470;2022-11-20T13:41:26;4.53;;;4.07;;
44048;SDS011;29717;47.028;15.470;2022-11-20T13:44:04;4.75;;;4.35;;
44048;SDS011;29717;47.028;15.470;2022-11-20T13:46:36;5.15;;;4.65;;
44048;SDS011;29717;47.028;15.470;2022-11-20T13:49:06;5.45;;;4.65;;
44048;SDS011;29717;47.028;15.470;2022-11-20T13:51:35;4.75;;;4.35;;
44048;SDS011;29717;47.028;15.470;2022-11-20T13:54:14;8.82;;;4.90;;
44048;SDS011;29717;47.028;15.470;2022-11-20T13:56:50;9.13;;;5.40;;
44048;SDS011;29717;47.028;15.470;2022-11-20T13:59:26;5.70;;;5.13;;
44048;SDS011;29717;47.028;15.470;2022-11-20T14:01:55;5.25;;;4.75;;
44048;SDS011;29717;47.028;15.470;2022-11-20T14:04:23;5.30;;;4.80;;
44048;SDS011;29717;47.028;15.470;2022-11-20T14:06:52;5.18;;;4.70;;
44048;SDS011;29717;47.028;15.470;2022-11-20T14:09:25;5.80;;;4.80;;
44048;SDS011;29717;47.028;15.470;2022-11-20T14:11:54;5.22;;;4.72;;
44048;SDS011;29717;47.028;15.470;2022-11-20T14:14:21;5.60;;;5.10;;
44048;SDS011;29717;47.028;15.470;2022-11-20T14:16:48;5.93;;;5.22;;
44048;SDS011;29717;47.028;15.470;2022-11-20T14:19:26;5.63;;;5.13;;
44048;SDS011;29717;47.028;15.470;2022-11-20T14:22:07;5.70;;;5.05;;
44048;SDS011;29717;47.028;15.470;2022-11-20T14:24:34;5.30;;;4.80;;
44048;SDS011;29717;47.028;15.470;2022-11-20T14:27:02;7.35;;;5.15;;
44048;SDS011;29717;47.028;15.470;2022-11-20T14:29:29;9.32;;;4.13;;
44048;SDS011;29717;47.028;15.470;2022-11-20T14:31:57;5.35;;;4.43;;
44048;SDS011;29717;47.028;15.470;2022-11-20T14:34:24;4.60;;;4.20;;